createdAt,value
2023-01-11T00:02:23.021Z,0.00
2023-01-11T00:04:49.542Z,0.00
2023-01-11T00:07:15.942Z,0.00
2023-01-11T00:09:42.336Z,0.00
2023-01-11T00:12:12.224Z,0.00
2023-01-11T00:14:38.599Z,0.00
2023-01-11T00:17:05.029Z,0.00
2023-01-11T00:19:31.417Z,0.00
2023-01-11T00:21:57.799Z,0.00
2023-01-11T00:24:24.211Z,0.00
2023-01-11T00:26:50.669Z,0.00
2023-01-11T00:29:17.189Z,0.00
2023-01-11T00:31:43.661Z,0.00
2023-01-11T00:34:10.072Z,0.00
2023-01-11T00:36:36.519Z,0.00
2023-01-11T00:39:02.940Z,0.00
2023-01-11T00:41:47.854Z,0.00
2023-01-11T00:44:33.049Z,0.00
2023-01-11T00:47:17.881Z,0.00
2023-01-11T00:49:44.419Z,0.00
2023-01-11T00:52:10.942Z,0.00
2023-01-11T00:54:41.650Z,0.00
2023-01-11T00:57:08.813Z,0.00
2023-01-11T00:59:36.160Z,0.00
2023-01-11T01:02:03.420Z,0.00
2023-01-11T01:04:29.845Z,0.00
2023-01-11T01:06:56.366Z,0.00
2023-01-11T01:09:23.102Z,0.00
2023-01-11T01:11:49.608Z,0.00
2023-01-11T01:14:33.034Z,0.00
2023-01-11T01:17:04.106Z,0.00
2023-01-11T01:19:31.525Z,0.00
2023-01-11T01:21:59.374Z,0.00
2023-01-11T01:24:28.675Z,0.00
2023-01-11T01:26:55.957Z,0.00
2023-01-11T01:29:22.383Z,0.00
2023-01-11T01:31:48.941Z,0.00
2023-01-11T01:34:15.588Z,0.00
2023-01-11T01:36:42.061Z,0.00
2023-01-11T01:39:10.832Z,0.00
2023-01-11T01:41:37.981Z,0.00
2023-01-11T01:44:42.105Z,0.00
2023-01-11T01:47:09.283Z,0.00
2023-01-11T01:49:35.849Z,0.00
2023-01-11T01:52:02.485Z,0.00
2023-01-11T01:54:35.354Z,0.00
2023-01-11T01:57:09.719Z,0.00
2023-01-11T01:59:36.454Z,0.00
2023-01-11T02:02:03.095Z,0.00
2023-01-11T02:04:40.060Z,0.00
2023-01-11T02:07:14.509Z,0.00
2023-01-11T02:09:53.312Z,0.00
2023-01-11T02:12:20.069Z,0.00
2023-01-11T02:14:49.335Z,0.00
2023-01-11T02:17:15.833Z,0.00
2023-01-11T02:20:05.658Z,0.00
2023-01-11T02:22:40.985Z,0.00
2023-01-11T02:25:46.539Z,0.00
2023-01-11T02:28:34.896Z,0.00
2023-01-11T02:31:10.360Z,0.00
2023-01-11T02:34:01.558Z,0.00
2023-01-11T02:36:37.815Z,0.00
2023-01-11T02:39:26.661Z,0.00
2023-01-11T02:42:18.030Z,0.00
2023-01-11T02:45:01.924Z,0.00
2023-01-11T02:47:55.172Z,0.00
2023-01-11T02:50:53.743Z,0.00
2023-01-11T02:53:27.632Z,0.00
2023-01-11T02:55:59.648Z,0.00
2023-01-11T02:58:29.964Z,0.00
2023-01-11T03:00:58.387Z,0.00
2023-01-11T03:03:27.611Z,0.00
2023-01-11T03:05:59.800Z,0.00
2023-01-11T03:08:50.380Z,0.00
2023-01-11T03:11:53.854Z,0.00
2023-01-11T03:14:24.956Z,0.00
2023-01-11T03:17:12.417Z,0.00
2023-01-11T03:19:53.218Z,0.00
2023-01-11T03:22:31.579Z,0.00
2023-01-11T03:25:15.661Z,0.00
2023-01-11T03:28:13.510Z,0.00
2023-01-11T03:31:04.832Z,0.00
2023-01-11T03:33:48.303Z,0.00
2023-01-11T03:36:23.535Z,0.00
2023-01-11T03:39:05.552Z,0.00
2023-01-11T03:41:37.861Z,0.00
2023-01-11T03:44:07.816Z,0.00
2023-01-11T03:46:38.798Z,0.00
2023-01-11T03:49:10.865Z,0.00
2023-01-11T03:51:45.624Z,0.00
2023-01-11T03:54:17.176Z,0.00
2023-01-11T03:57:07.487Z,0.00
2023-01-11T03:59:34.609Z,0.00
2023-01-11T04:02:01.513Z,0.00
2023-01-11T04:04:28.618Z,0.00
2023-01-11T04:06:55.096Z,0.00
2023-01-11T04:09:21.809Z,0.00
2023-01-11T04:11:48.415Z,0.00
2023-01-11T04:14:14.965Z,0.00
2023-01-11T04:16:41.518Z,0.00
2023-01-11T04:19:08.021Z,0.00
2023-01-11T04:21:34.483Z,0.00
2023-01-11T04:24:00.911Z,0.00
2023-01-11T04:26:27.324Z,0.00
2023-01-11T04:28:54.480Z,0.00
2023-01-11T04:31:21.165Z,0.00
2023-01-11T04:33:47.652Z,0.00
2023-01-11T04:36:14.250Z,0.00
2023-01-11T04:38:40.655Z,0.00
2023-01-11T04:41:25.576Z,0.00
2023-01-11T04:43:56.264Z,0.00
2023-01-11T04:46:24.007Z,0.00
2023-01-11T04:48:50.848Z,0.00
2023-01-11T04:51:17.311Z,0.00
2023-01-11T04:53:43.705Z,0.00
2023-01-11T04:56:11.995Z,0.00
2023-01-11T04:58:38.454Z,0.00
2023-01-11T05:01:15.213Z,0.00
2023-01-11T05:03:41.871Z,0.00
2023-01-11T05:06:08.574Z,0.00
2023-01-11T05:08:35.122Z,0.00
2023-01-11T05:11:04.252Z,0.00
2023-01-11T05:13:43.078Z,0.00
2023-01-11T05:16:20.250Z,0.00
2023-01-11T05:18:49.228Z,0.00
2023-01-11T05:21:18.326Z,0.00
2023-01-11T05:23:45.675Z,0.00
2023-01-11T05:26:15.615Z,0.00
2023-01-11T05:28:42.078Z,0.00
2023-01-11T05:31:08.583Z,0.00
2023-01-11T05:33:35.443Z,0.00
2023-01-11T05:36:04.824Z,0.00
2023-01-11T05:38:31.813Z,0.00
2023-01-11T05:41:03.727Z,0.00
2023-01-11T05:43:30.597Z,0.00
2023-01-11T05:45:58.203Z,0.00
2023-01-11T05:48:25.088Z,0.00
2023-01-11T05:50:53.651Z,0.00
2023-01-11T05:53:21.612Z,0.00
2023-01-11T05:55:55.651Z,0.00
2023-01-11T05:58:24.169Z,0.00
2023-01-11T06:00:52.458Z,0.00
2023-01-11T06:03:19.743Z,0.00
2023-01-11T06:05:46.630Z,0.00
2023-01-11T06:08:13.537Z,0.00
2023-01-11T06:10:40.340Z,0.00
2023-01-11T06:13:25.691Z,0.00
2023-01-11T06:15:53.126Z,0.00
2023-01-11T06:18:20.175Z,0.00
2023-01-11T06:20:54.466Z,0.00
2023-01-11T06:23:22.081Z,0.00
2023-01-11T06:25:48.658Z,0.00
2023-01-11T06:28:15.468Z,0.00
2023-01-11T06:30:42.003Z,0.00
2023-01-11T06:33:08.980Z,0.00
2023-01-11T06:35:40.503Z,0.00
2023-01-11T06:38:09.242Z,0.00
2023-01-11T06:40:36.589Z,0.00
2023-01-11T06:43:03.828Z,0.00
2023-01-11T06:45:31.002Z,0.00
2023-01-11T06:47:58.141Z,0.00
2023-01-11T06:50:24.643Z,0.00
2023-01-11T06:52:56.148Z,0.00
2023-01-11T06:55:24.813Z,0.00
2023-01-11T06:57:52.337Z,0.00
2023-01-11T07:00:19.103Z,0.00
2023-01-11T07:02:47.022Z,0.00
2023-01-11T07:05:14.248Z,0.00
2023-01-11T07:07:42.075Z,0.00
2023-01-11T07:10:12.065Z,0.00
2023-01-11T07:12:38.906Z,0.00
2023-01-11T07:15:07.502Z,0.00
2023-01-11T07:17:34.201Z,0.19
2023-01-11T07:20:00.794Z,1.43
2023-01-11T07:22:27.950Z,4.04
2023-01-11T07:24:54.512Z,4.11
2023-01-11T07:27:20.980Z,7.86
2023-01-11T07:29:47.733Z,7.79
2023-01-11T07:32:14.254Z,10.08
2023-01-11T07:34:40.645Z,13.85
2023-01-11T07:37:09.443Z,15.48
2023-01-11T07:39:55.101Z,17.73
2023-01-11T07:42:40.249Z,18.65
2023-01-11T07:45:07.273Z,19.61
2023-01-11T07:47:33.687Z,17.47
2023-01-11T07:50:00.078Z,16.57
2023-01-11T07:52:26.500Z,16.43
2023-01-11T07:54:52.921Z,16.81
2023-01-11T07:57:19.369Z,15.44
2023-01-11T07:59:45.870Z,14.97
2023-01-11T08:02:12.281Z,14.99
2023-01-11T08:04:38.723Z,15.35
2023-01-11T08:07:06.278Z,14.91
2023-01-11T08:09:32.845Z,13.56
2023-01-11T08:12:17.863Z,17.99
2023-01-11T08:14:44.319Z,19.68
2023-01-11T08:17:16.874Z,20.92
2023-01-11T08:19:43.556Z,21.39
2023-01-11T08:22:10.475Z,22.30
2023-01-11T08:24:37.080Z,23.64
2023-01-11T08:27:04.667Z,23.78
2023-01-11T08:29:31.511Z,24.50
2023-01-11T08:31:59.333Z,24.71
2023-01-11T08:34:27.478Z,25.02
2023-01-11T08:36:53.935Z,23.67
2023-01-11T08:39:20.426Z,23.51
2023-01-11T08:41:46.890Z,20.59
2023-01-11T08:44:15.013Z,22.67
2023-01-11T08:46:41.619Z,24.11
2023-01-11T08:49:12.315Z,23.05
2023-01-11T08:51:40.261Z,23.52
2023-01-11T08:54:10.469Z,22.96
2023-01-11T08:56:37.273Z,21.53
2023-01-11T08:59:04.772Z,21.37
2023-01-11T09:01:32.245Z,19.46
2023-01-11T09:03:58.883Z,19.66
2023-01-11T09:06:25.685Z,23.17
2023-01-11T09:08:52.198Z,26.42
2023-01-11T09:11:37.708Z,26.71
2023-01-11T09:14:04.141Z,27.35
2023-01-11T09:16:30.571Z,27.47
2023-01-11T09:18:57.053Z,27.52
2023-01-11T09:21:23.663Z,26.87
2023-01-11T09:23:50.152Z,26.23
2023-01-11T09:26:16.602Z,26.12
2023-01-11T09:28:43.034Z,24.72
2023-01-11T09:31:09.581Z,26.59
2023-01-11T09:33:36.197Z,28.49
2023-01-11T09:36:02.966Z,34.00
2023-01-11T09:38:30.800Z,36.81
2023-01-11T09:41:25.291Z,41.20
2023-01-11T09:44:03.781Z,52.34
2023-01-11T09:46:33.178Z,61.42
2023-01-11T09:49:00.354Z,63.45
2023-01-11T09:51:33.785Z,68.64
2023-01-11T09:54:05.735Z,67.69
2023-01-11T09:56:45.713Z,69.94
2023-01-11T09:59:22.907Z,71.42
2023-01-11T10:02:24.446Z,71.01
2023-01-11T10:05:06.393Z,71.69
2023-01-11T10:14:01.324Z,75.27
2023-01-11T10:18:29.207Z,76.34
2023-01-11T10:20:12.931Z,76.07
2023-01-11T10:22:44.917Z,78.44
2023-01-11T10:25:18.838Z,77.45
2023-01-11T10:27:58.868Z,80.97
2023-01-11T10:30:32.375Z,78.05
2023-01-11T10:33:29.113Z,79.48
2023-01-11T10:36:44.964Z,80.52
2023-01-11T10:39:32.782Z,78.08
2023-01-11T10:42:11.646Z,79.68
2023-01-11T10:44:43.782Z,77.37
2023-01-11T10:47:17.784Z,77.33
2023-01-11T10:50:00.024Z,79.42
2023-01-11T10:52:41.985Z,80.83
2023-01-11T10:55:18.958Z,78.92
2023-01-11T10:58:01.732Z,75.17
2023-01-11T11:00:42.130Z,79.51
2023-01-11T11:03:33.913Z,81.07
2023-01-11T11:06:17.469Z,80.08
2023-01-11T11:08:56.631Z,80.53
2023-01-11T11:11:33.057Z,82.06
2023-01-11T11:14:14.482Z,82.24
2023-01-11T11:16:49.403Z,83.70
2023-01-11T11:19:19.861Z,82.62
2023-01-11T11:21:46.840Z,82.29
2023-01-11T11:24:22.941Z,83.38
2023-01-11T11:27:00.680Z,83.00
2023-01-11T11:29:30.633Z,81.75
2023-01-11T11:32:00.123Z,84.24
2023-01-11T11:34:28.276Z,85.07
2023-01-11T11:36:58.667Z,83.79
2023-01-11T11:39:27.235Z,83.77
2023-01-11T11:41:56.329Z,83.60
2023-01-11T11:44:25.413Z,83.90
2023-01-11T11:47:01.954Z,84.40
2023-01-11T11:49:36.363Z,83.54
2023-01-11T11:52:05.690Z,84.13
2023-01-11T11:54:40.903Z,84.81
2023-01-11T11:57:28.565Z,84.49
2023-01-11T12:00:09.214Z,84.71
2023-01-11T12:02:41.792Z,85.19
2023-01-11T12:05:10.637Z,84.91
2023-01-11T12:07:54.335Z,84.61
2023-01-11T12:10:27.668Z,85.08
2023-01-11T12:13:00.583Z,84.66
2023-01-11T12:15:32.827Z,84.08
2023-01-11T12:18:26.954Z,84.56
2023-01-11T12:20:54.632Z,84.33
2023-01-11T12:23:24.347Z,84.87
2023-01-11T12:26:09.257Z,85.27
2023-01-11T12:28:57.607Z,85.31
2023-01-11T12:31:36.785Z,85.96
2023-01-11T12:34:32.497Z,85.47
2023-01-11T12:37:17.813Z,85.97
2023-01-11T12:40:16.829Z,84.89
2023-01-11T12:43:04.465Z,85.81
2023-01-11T12:45:40.003Z,86.68
2023-01-11T12:48:25.243Z,86.55
2023-01-11T12:51:43.063Z,86.19
2023-01-11T12:54:25.512Z,86.64
2023-01-11T12:57:13.869Z,86.28
2023-01-11T12:59:59.126Z,86.70
2023-01-11T13:02:56.638Z,86.40
2023-01-11T13:05:25.766Z,86.68
2023-01-11T13:08:16.151Z,86.92
2023-01-11T13:10:48.268Z,86.58
2023-01-11T13:13:31.193Z,86.74
2023-01-11T13:16:25.287Z,86.53
2023-01-11T13:18:59.201Z,86.32
2023-01-11T13:21:34.097Z,86.30
2023-01-11T13:24:27.657Z,85.98
2023-01-11T13:26:59.799Z,86.69
2023-01-11T13:29:26.162Z,86.97
2023-01-11T13:31:55.490Z,85.94
2023-01-11T13:34:29.729Z,86.22
2023-01-11T13:37:01.629Z,85.84
2023-01-11T13:39:32.381Z,85.48
2023-01-11T13:42:04.403Z,85.21
2023-01-11T13:44:37.844Z,85.18
2023-01-11T13:47:29.084Z,85.52
2023-01-11T13:50:09.203Z,84.85
2023-01-11T13:52:57.746Z,85.06
2023-01-11T13:55:39.566Z,85.12
2023-01-11T13:58:16.499Z,84.35
2023-01-11T14:00:51.614Z,84.90
2023-01-11T14:03:28.772Z,84.79
2023-01-11T14:06:33.950Z,85.21
2023-01-11T14:09:54.823Z,84.90
2023-01-11T14:12:30.723Z,85.08
2023-01-11T14:15:21.454Z,85.03
2023-01-11T14:17:53.973Z,84.96
2023-01-11T14:20:36.417Z,85.04
2023-01-11T14:23:21.082Z,85.35
2023-01-11T14:26:06.329Z,84.82
2023-01-11T14:29:12.550Z,84.93
2023-01-11T14:31:38.962Z,85.41
2023-01-11T14:34:23.735Z,85.80
2023-01-11T14:37:18.927Z,85.75
2023-01-11T14:40:30.598Z,85.90
2023-01-11T14:43:23.486Z,85.57
2023-01-11T14:46:26.961Z,86.14
2023-01-11T14:49:17.984Z,86.18
2023-01-11T14:51:44.332Z,86.03
2023-01-11T14:54:15.413Z,86.00
2023-01-11T14:56:41.768Z,86.28
2023-01-11T14:59:40.201Z,86.13
2023-01-11T15:02:14.153Z,86.59
2023-01-11T15:04:54.706Z,86.26
2023-01-11T15:07:30.427Z,86.10
2023-01-11T15:10:23.372Z,87.08
2023-01-11T15:12:50.017Z,86.99
2023-01-11T15:15:20.414Z,86.94
2023-01-11T15:18:14.299Z,86.70
2023-01-11T15:20:56.174Z,86.75
2023-01-11T15:23:24.437Z,86.75
2023-01-11T15:26:00.870Z,86.79
2023-01-11T15:29:00.034Z,86.87
2023-01-11T15:31:49.231Z,86.74
2023-01-11T15:34:27.927Z,86.52
2023-01-11T15:37:16.380Z,86.72
2023-01-11T15:39:58.926Z,86.89
2023-01-11T15:43:02.089Z,86.59
2023-01-11T15:46:02.311Z,86.53
2023-01-11T15:49:16.717Z,86.88
2023-01-11T15:51:55.880Z,86.40
2023-01-11T15:54:49.960Z,86.80
2023-01-11T15:57:26.429Z,86.45
2023-01-11T16:00:11.863Z,87.05
2023-01-11T16:02:57.104Z,86.81
2023-01-11T16:05:36.026Z,86.61
2023-01-11T16:08:43.892Z,86.63
2023-01-11T16:11:35.852Z,86.51
2023-01-11T16:14:33.305Z,86.78
2023-01-11T16:17:00.754Z,87.00
2023-01-11T16:19:32.842Z,86.63
2023-01-11T16:22:03.506Z,86.56
2023-01-11T16:24:35.966Z,86.73
2023-01-11T16:27:04.268Z,86.85
2023-01-11T16:29:36.111Z,86.81
2023-01-11T16:32:06.431Z,86.74
2023-01-11T16:34:46.044Z,86.08
2023-01-11T16:37:43.597Z,86.45
2023-01-11T16:40:21.515Z,86.21
2023-01-11T16:42:53.878Z,86.44
2023-01-11T16:45:38.638Z,86.11
2023-01-11T16:48:06.369Z,86.71
2023-01-11T16:50:34.551Z,86.80
2023-01-11T16:53:04.176Z,86.95
2023-01-11T16:55:35.923Z,86.73
2023-01-11T16:58:18.347Z,86.50
2023-01-11T17:01:11.449Z,86.94
2023-01-11T17:03:48.217Z,86.69
2023-01-11T17:06:18.653Z,86.81
2023-01-11T17:08:52.041Z,86.74
2023-01-11T17:11:21.473Z,86.72
2023-01-11T17:14:17.801Z,86.92
2023-01-11T17:16:50.496Z,86.85
2023-01-11T17:19:16.967Z,86.65
2023-01-11T17:22:14.345Z,86.70
2023-01-11T17:24:43.349Z,86.69
2023-01-11T17:27:20.171Z,86.65
2023-01-11T17:29:47.716Z,86.50
2023-01-11T17:32:20.170Z,86.31
2023-01-11T17:34:48.953Z,86.48
2023-01-11T17:37:18.544Z,86.39
2023-01-11T17:39:49.707Z,86.36
2023-01-11T17:42:35.840Z,86.25
2023-01-11T17:45:21.673Z,86.16
2023-01-11T17:47:53.764Z,86.63
2023-01-11T17:50:30.862Z,86.27
2023-01-11T17:53:03.241Z,86.30
2023-01-11T17:55:29.968Z,86.15
2023-01-11T17:58:28.787Z,86.35
2023-01-11T18:01:04.573Z,86.02
2023-01-11T18:03:52.915Z,86.62
2023-01-11T18:06:40.417Z,86.62
2023-01-11T18:09:29.432Z,86.34
2023-01-11T18:12:08.083Z,86.25
2023-01-11T18:14:48.629Z,86.18
2023-01-11T18:17:36.736Z,86.67
2023-01-11T18:20:36.057Z,86.46
2023-01-11T18:23:20.052Z,86.46
2023-01-11T18:25:46.987Z,86.61
2023-01-11T18:28:30.343Z,86.71
2023-01-11T18:31:01.621Z,86.32
2023-01-11T18:33:32.656Z,85.78
2023-01-11T18:36:04.273Z,85.67
2023-01-11T18:38:33.499Z,85.75
2023-01-11T18:41:26.521Z,85.44
2023-01-11T18:43:54.076Z,84.93
2023-01-11T18:46:20.722Z,83.96
2023-01-11T18:48:47.230Z,81.68
2023-01-11T18:51:21.321Z,80.52
2023-01-11T18:53:47.756Z,79.34
2023-01-11T18:56:16.258Z,79.17
2023-01-11T18:58:42.891Z,79.33
2023-01-11T19:01:09.731Z,78.56
2023-01-11T19:03:37.325Z,79.07
2023-01-11T19:06:05.060Z,79.87
2023-01-11T19:08:31.753Z,80.25
2023-01-11T19:10:58.198Z,80.55
2023-01-11T19:13:24.679Z,81.63
2023-01-11T19:15:51.184Z,81.80
2023-01-11T19:18:17.637Z,81.85
2023-01-11T19:20:44.208Z,82.08
2023-01-11T19:23:10.609Z,81.90
2023-01-11T19:25:37.075Z,81.68
2023-01-11T19:28:04.828Z,80.80
2023-01-11T19:30:31.775Z,81.00
2023-01-11T19:32:58.218Z,80.85
2023-01-11T19:35:24.717Z,79.41
2023-01-11T19:37:51.773Z,77.29
2023-01-11T19:40:21.111Z,77.54
2023-01-11T19:42:47.771Z,76.46
2023-01-11T19:45:14.264Z,74.85
2023-01-11T19:47:40.716Z,72.51
2023-01-11T19:50:08.391Z,72.29
2023-01-11T19:52:34.985Z,71.78
2023-01-11T19:55:01.401Z,70.49
2023-01-11T19:57:28.725Z,67.76
2023-01-11T19:59:55.101Z,66.53
2023-01-11T20:02:21.859Z,63.50
2023-01-11T20:04:48.655Z,72.61
2023-01-11T20:07:15.778Z,69.76
2023-01-11T20:09:42.528Z,67.41
2023-01-11T20:12:11.301Z,64.88
2023-01-11T20:14:40.213Z,61.30
2023-01-11T20:17:06.759Z,61.04
2023-01-11T20:19:33.485Z,61.68
2023-01-11T20:21:59.924Z,62.92
2023-01-11T20:24:29.600Z,58.71
2023-01-11T20:26:57.855Z,60.80
2023-01-11T20:29:24.416Z,63.69
2023-01-11T20:31:51.127Z,62.75
2023-01-11T20:34:18.045Z,62.75
2023-01-11T20:36:45.105Z,63.02
2023-01-11T20:39:12.064Z,63.25
2023-01-11T20:41:47.596Z,62.15
2023-01-11T20:44:24.901Z,62.28
2023-01-11T20:46:52.872Z,61.82
2023-01-11T20:49:22.712Z,60.96
2023-01-11T20:51:49.680Z,61.66
2023-01-11T20:54:16.674Z,61.59
2023-01-11T20:56:46.257Z,61.37
2023-01-11T20:59:13.904Z,62.29
2023-01-11T21:01:40.444Z,61.34
2023-01-11T21:04:08.862Z,60.45
2023-01-11T21:06:38.430Z,59.65
2023-01-11T21:09:06.408Z,60.12
2023-01-11T21:11:33.346Z,59.62
2023-01-11T21:14:00.965Z,59.71
2023-01-11T21:16:29.216Z,60.03
2023-01-11T21:18:58.332Z,58.98
2023-01-11T21:21:27.789Z,59.46
2023-01-11T21:23:56.640Z,59.64
2023-01-11T21:26:24.605Z,60.09
2023-01-11T21:28:55.503Z,61.28
2023-01-11T21:31:22.703Z,61.36
2023-01-11T21:33:49.897Z,61.83
2023-01-11T21:36:18.980Z,61.83
2023-01-11T21:38:45.901Z,61.49
2023-01-11T21:41:13.831Z,61.89
2023-01-11T21:43:42.316Z,60.78
2023-01-11T21:46:10.355Z,60.44
2023-01-11T21:48:36.881Z,60.25
2023-01-11T21:51:06.642Z,60.57
2023-01-11T21:53:33.463Z,61.54
2023-01-11T21:56:04.941Z,62.49
2023-01-11T21:58:31.916Z,62.56
2023-01-11T22:00:58.559Z,63.04
2023-01-11T22:03:29.105Z,63.92
2023-01-11T22:06:01.715Z,65.21
2023-01-11T22:08:28.631Z,66.68
2023-01-11T22:10:57.033Z,68.08
2023-01-11T22:13:23.405Z,71.88
2023-01-11T22:15:49.767Z,73.44
2023-01-11T22:18:16.240Z,74.72
2023-01-11T22:20:42.624Z,75.01
2023-01-11T22:23:09.008Z,74.69
2023-01-11T22:25:36.000Z,75.59
2023-01-11T22:28:02.442Z,74.93
2023-01-11T22:30:28.837Z,75.69
2023-01-11T22:32:55.342Z,76.66
2023-01-11T22:35:21.968Z,76.34
2023-01-11T22:40:15.541Z,76.63
2023-01-11T22:42:42.058Z,76.08
2023-01-11T22:45:09.729Z,74.92
2023-01-11T22:47:36.202Z,73.84
2023-01-11T22:50:03.036Z,74.24
2023-01-11T22:52:29.700Z,73.87
2023-01-11T22:54:56.072Z,74.77
2023-01-11T22:57:22.512Z,76.97
2023-01-11T22:59:48.911Z,77.85
2023-01-11T23:02:15.287Z,78.52
2023-01-11T23:04:41.713Z,77.82
2023-01-11T23:07:08.158Z,77.95
2023-01-11T23:09:34.629Z,78.21
2023-01-11T23:12:19.761Z,78.58
2023-01-11T23:14:46.273Z,77.76
2023-01-11T23:17:12.777Z,76.75
2023-01-11T23:19:41.106Z,76.04
2023-01-11T23:22:09.956Z,74.72
2023-01-11T23:24:37.338Z,74.85
2023-01-11T23:27:03.887Z,75.24
2023-01-11T23:29:30.321Z,75.42
2023-01-11T23:31:56.853Z,74.38
2023-01-11T23:34:23.372Z,73.74
2023-01-11T23:36:49.816Z,72.88
2023-01-11T23:39:18.667Z,72.57
2023-01-11T23:42:03.465Z,71.58
2023-01-11T23:44:30.252Z,71.58
2023-01-11T23:47:15.105Z,70.93
2023-01-11T23:49:43.448Z,70.93
2023-01-11T23:52:10.252Z,70.40
2023-01-11T23:54:36.671Z,71.12
2023-01-11T23:57:03.706Z,71.21
2023-01-11T23:59:30.685Z,71.02
